sensor_id;sensor_type;location;lat;lon;timestamp;temperature;humidity
26107;DHT22;13866;50.748;12.630;2023-05-21T00:02:14;15.30;99.90
26107;DHT22;13866;50.748;12.630;2023-05-21T00:04:42;15.40;99.90
26107;DHT22;13866;50.748;12.630;2023-05-21T00:07:07;15.50;99.90
26107;DHT22;13866;50.748;12.630;2023-05-21T00:09:34;15.50;99.90
26107;DHT22;13866;50.748;12.630;2023-05-21T00:11:59;15.60;99.90
26107;DHT22;13866;50.748;12.630;2023-05-21T00:14:25;15.60;99.90
26107;DHT22;13866;50.748;12.630;2023-05-21T00:16:51;15.70;99.90
26107;DHT22;13866;50.748;12.630;2023-05-21T00:19:16;15.70;99.90
26107;DHT22;13866;50.748;12.630;2023-05-21T00:21:42;15.60;99.90
26107;DHT22;13866;50.748;12.630;2023-05-21T00:24:10;15.60;99.90
26107;DHT22;13866;50.748;12.630;2023-05-21T00:26:36;15.70;99.90
26107;DHT22;13866;50.748;12.630;2023-05-21T00:29:01;15.70;99.90
26107;DHT22;13866;50.748;12.630;2023-05-21T00:31:27;15.60;99.90
26107;DHT22;13866;50.748;12.630;2023-05-21T00:33:52;15.60;99.90
26107;DHT22;13866;50.748;12.630;2023-05-21T00:36:18;15.60;99.90
26107;DHT22;13866;50.748;12.630;2023-05-21T00:38:49;15.70;99.90
26107;DHT22;13866;50.748;12.630;2023-05-21T00:41:15;15.60;99.90
26107;DHT22;13866;50.748;12.630;2023-05-21T00:43:41;15.50;99.90
26107;DHT22;13866;50.748;12.630;2023-05-21T00:46:14;15.50;99.90
26107;DHT22;13866;50.748;12.630;2023-05-21T00:48:46;15.50;99.90
26107;DHT22;13866;50.748;12.630;2023-05-21T00:51:15;15.50;99.90
26107;DHT22;13866;50.748;12.630;2023-05-21T00:53:43;15.40;99.90
26107;DHT22;13866;50.748;12.630;2023-05-21T00:56:09;15.40;99.90
26107;DHT22;13866;50.748;12.630;2023-05-21T00:58:35;15.30;99.90
26107;DHT22;13866;50.748;12.630;2023-05-21T01:01:01;15.30;99.90
26107;DHT22;13866;50.748;12.630;2023-05-21T01:03:31;15.20;99.90
26107;DHT22;13866;50.748;12.630;2023-05-21T01:06:03;15.20;99.90
26107;DHT22;13866;50.748;12.630;2023-05-21T01:08:29;15.20;99.90
26107;DHT22;13866;50.748;12.630;2023-05-21T01:10:55;15.20;99.90
26107;DHT22;13866;50.748;12.630;2023-05-21T01:13:22;15.10;99.90
26107;DHT22;13866;50.748;12.630;2023-05-21T01:15:49;15.10;99.90
26107;DHT22;13866;50.748;12.630;2023-05-21T01:18:14;15.00;99.90
26107;DHT22;13866;50.748;12.630;2023-05-21T01:20:41;15.00;99.90
26107;DHT22;13866;50.748;12.630;2023-05-21T01:23:07;15.00;99.90
26107;DHT22;13866;50.748;12.630;2023-05-21T01:25:33;15.00;99.90
26107;DHT22;13866;50.748;12.630;2023-05-21T01:27:59;15.00;99.90
26107;DHT22;13866;50.748;12.630;2023-05-21T01:30:25;15.00;99.90
26107;DHT22;13866;50.748;12.630;2023-05-21T01:32:55;15.00;99.90
26107;DHT22;13866;50.748;12.630;2023-05-21T01:35:34;15.00;99.90
26107;DHT22;13866;50.748;12.630;2023-05-21T01:38:23;15.00;99.90
26107;DHT22;13866;50.748;12.630;2023-05-21T01:43:19;15.00;99.90
26107;DHT22;13866;50.748;12.630;2023-05-21T01:45:45;15.00;99.90
26107;DHT22;13866;50.748;12.630;2023-05-21T01:48:12;15.00;99.90
26107;DHT22;13866;50.748;12.630;2023-05-21T01:50:39;15.00;99.90
26107;DHT22;13866;50.748;12.630;2023-05-21T01:53:05;15.10;99.90
26107;DHT22;13866;50.748;12.630;2023-05-21T01:55:31;15.00;99.90
26107;DHT22;13866;50.748;12.630;2023-05-21T01:57:57;15.00;99.90
26107;DHT22;13866;50.748;12.630;2023-05-21T02:00:24;15.10;99.90
26107;DHT22;13866;50.748;12.630;2023-05-21T02:02:52;15.00;99.90
26107;DHT22;13866;50.748;12.630;2023-05-21T02:05:18;15.00;99.90
26107;DHT22;13866;50.748;12.630;2023-05-21T02:07:44;15.00;99.90
26107;DHT22;13866;50.748;12.630;2023-05-21T02:10:10;15.00;99.90
26107;DHT22;13866;50.748;12.630;2023-05-21T02:12:36;15.00;99.90
26107;DHT22;13866;50.748;12.630;2023-05-21T02:15:02;15.00;99.90
26107;DHT22;13866;50.748;12.630;2023-05-21T02:17:28;15.00;99.90
26107;DHT22;13866;50.748;12.630;2023-05-21T02:19:59;15.00;99.90
26107;DHT22;13866;50.748;12.630;2023-05-21T02:22:36;15.00;99.90
26107;DHT22;13866;50.748;12.630;2023-05-21T02:25:01;15.00;99.90
26107;DHT22;13866;50.748;12.630;2023-05-21T02:27:26;15.00;99.90
26107;DHT22;13866;50.748;12.630;2023-05-21T02:29:56;15.00;99.90
26107;DHT22;13866;50.748;12.630;2023-05-21T02:32:21;15.00;99.90
26107;DHT22;13866;50.748;12.630;2023-05-21T02:34:48;15.10;99.90
26107;DHT22;13866;50.748;12.630;2023-05-21T02:37:14;15.10;99.90
26107;DHT22;13866;50.748;12.630;2023-05-21T02:39:39;15.00;99.90
26107;DHT22;13866;50.748;12.630;2023-05-21T02:42:05;15.00;99.90
26107;DHT22;13866;50.748;12.630;2023-05-21T02:44:30;15.00;99.90
26107;DHT22;13866;50.748;12.630;2023-05-21T02:46:56;14.90;99.90
26107;DHT22;13866;50.748;12.630;2023-05-21T02:49:21;14.90;99.90
26107;DHT22;13866;50.748;12.630;2023-05-21T02:51:47;14.90;99.90
26107;DHT22;13866;50.748;12.630;2023-05-21T02:54:13;14.90;99.90
26107;DHT22;13866;50.748;12.630;2023-05-21T02:56:38;14.80;99.90
26107;DHT22;13866;50.748;12.630;2023-05-21T02:59:04;14.70;99.90
26107;DHT22;13866;50.748;12.630;2023-05-21T03:01:29;14.60;99.90
26107;DHT22;13866;50.748;12.630;2023-05-21T03:03:55;14.40;99.90
26107;DHT22;13866;50.748;12.630;2023-05-21T03:06:20;14.40;99.90
26107;DHT22;13866;50.748;12.630;2023-05-21T03:08:46;14.40;99.90
26107;DHT22;13866;50.748;12.630;2023-05-21T03:11:12;14.30;99.90
26107;DHT22;13866;50.748;12.630;2023-05-21T03:13:37;14.20;99.90
26107;DHT22;13866;50.748;12.630;2023-05-21T03:16:03;14.20;99.90
26107;DHT22;13866;50.748;12.630;2023-05-21T03:18:28;14.10;99.90
26107;DHT22;13866;50.748;12.630;2023-05-21T03:20:54;14.00;99.90
26107;DHT22;13866;50.748;12.630;2023-05-21T03:23:20;14.00;99.90
26107;DHT22;13866;50.748;12.630;2023-05-21T03:25:45;14.00;99.90
26107;DHT22;13866;50.748;12.630;2023-05-21T03:28:11;13.90;99.90
26107;DHT22;13866;50.748;12.630;2023-05-21T03:30:36;13.90;99.90
26107;DHT22;13866;50.748;12.630;2023-05-21T03:33:03;13.80;99.90
26107;DHT22;13866;50.748;12.630;2023-05-21T03:35:29;13.80;99.90
26107;DHT22;13866;50.748;12.630;2023-05-21T03:37:54;13.80;99.90
26107;DHT22;13866;50.748;12.630;2023-05-21T03:40:20;13.70;99.90
26107;DHT22;13866;50.748;12.630;2023-05-21T03:42:46;13.70;99.90
26107;DHT22;13866;50.748;12.630;2023-05-21T03:45:12;13.60;99.90
26107;DHT22;13866;50.748;12.630;2023-05-21T03:47:37;13.60;99.90
26107;DHT22;13866;50.748;12.630;2023-05-21T03:50:03;13.60;99.90
26107;DHT22;13866;50.748;12.630;2023-05-21T03:52:30;13.60;99.90
26107;DHT22;13866;50.748;12.630;2023-05-21T03:54:55;13.70;99.90
26107;DHT22;13866;50.748;12.630;2023-05-21T03:57:21;13.70;99.90
26107;DHT22;13866;50.748;12.630;2023-05-21T03:59:46;13.70;99.90
26107;DHT22;13866;50.748;12.630;2023-05-21T04:02:12;13.80;99.90
26107;DHT22;13866;50.748;12.630;2023-05-21T04:04:37;13.80;99.90
26107;DHT22;13866;50.748;12.630;2023-05-21T04:07:03;13.80;99.90
26107;DHT22;13866;50.748;12.630;2023-05-21T04:09:29;13.80;99.90
26107;DHT22;13866;50.748;12.630;2023-05-21T04:11:55;13.70;99.90
26107;DHT22;13866;50.748;12.630;2023-05-21T04:14:21;13.70;99.90
26107;DHT22;13866;50.748;12.630;2023-05-21T04:16:47;13.70;99.90
26107;DHT22;13866;50.748;12.630;2023-05-21T04:19:13;13.80;99.90
26107;DHT22;13866;50.748;12.630;2023-05-21T04:21:39;13.70;99.90
26107;DHT22;13866;50.748;12.630;2023-05-21T04:24:04;13.70;99.90
26107;DHT22;13866;50.748;12.630;2023-05-21T04:26:30;13.80;99.90
26107;DHT22;13866;50.748;12.630;2023-05-21T04:28:58;13.90;99.90
26107;DHT22;13866;50.748;12.630;2023-05-21T04:31:23;13.90;99.90
26107;DHT22;13866;50.748;12.630;2023-05-21T04:33:49;14.00;99.90
26107;DHT22;13866;50.748;12.630;2023-05-21T04:36:15;14.20;99.90
26107;DHT22;13866;50.748;12.630;2023-05-21T04:38:41;14.30;99.90
26107;DHT22;13866;50.748;12.630;2023-05-21T04:41:07;14.30;99.90
26107;DHT22;13866;50.748;12.630;2023-05-21T04:43:35;14.40;99.90
26107;DHT22;13866;50.748;12.630;2023-05-21T04:46:01;14.40;99.90
26107;DHT22;13866;50.748;12.630;2023-05-21T04:48:26;14.40;99.90
26107;DHT22;13866;50.748;12.630;2023-05-21T04:50:53;14.40;99.90
26107;DHT22;13866;50.748;12.630;2023-05-21T04:53:18;14.50;99.90
26107;DHT22;13866;50.748;12.630;2023-05-21T04:55:44;14.60;99.90
26107;DHT22;13866;50.748;12.630;2023-05-21T04:58:11;14.60;99.90
26107;DHT22;13866;50.748;12.630;2023-05-21T05:00:37;14.70;99.90
26107;DHT22;13866;50.748;12.630;2023-05-21T05:03:03;14.80;99.90
26107;DHT22;13866;50.748;12.630;2023-05-21T05:05:29;15.00;99.90
26107;DHT22;13866;50.748;12.630;2023-05-21T05:07:55;15.10;99.90
26107;DHT22;13866;50.748;12.630;2023-05-21T05:10:22;15.20;99.90
26107;DHT22;13866;50.748;12.630;2023-05-21T05:12:47;15.20;99.90
26107;DHT22;13866;50.748;12.630;2023-05-21T05:15:13;15.30;99.90
26107;DHT22;13866;50.748;12.630;2023-05-21T05:17:38;15.50;99.90
26107;DHT22;13866;50.748;12.630;2023-05-21T05:20:06;15.60;99.90
26107;DHT22;13866;50.748;12.630;2023-05-21T05:22:32;15.70;99.90
26107;DHT22;13866;50.748;12.630;2023-05-21T05:24:57;15.90;99.90
26107;DHT22;13866;50.748;12.630;2023-05-21T05:27:23;16.00;99.90
26107;DHT22;13866;50.748;12.630;2023-05-21T05:29:48;16.20;99.90
26107;DHT22;13866;50.748;12.630;2023-05-21T05:32:13;16.40;99.90
26107;DHT22;13866;50.748;12.630;2023-05-21T05:34:39;16.60;99.90
26107;DHT22;13866;50.748;12.630;2023-05-21T05:37:06;16.70;99.90
26107;DHT22;13866;50.748;12.630;2023-05-21T05:39:32;16.90;99.90
26107;DHT22;13866;50.748;12.630;2023-05-21T05:41:57;17.20;99.90
26107;DHT22;13866;50.748;12.630;2023-05-21T05:44:45;17.50;99.90
26107;DHT22;13866;50.748;12.630;2023-05-21T05:47:10;17.80;99.90
26107;DHT22;13866;50.748;12.630;2023-05-21T05:49:36;18.10;99.90
26107;DHT22;13866;50.748;12.630;2023-05-21T05:52:02;18.50;99.90
26107;DHT22;13866;50.748;12.630;2023-05-21T05:54:27;18.70;99.90
26107;DHT22;13866;50.748;12.630;2023-05-21T05:56:53;18.90;99.90
26107;DHT22;13866;50.748;12.630;2023-05-21T05:59:24;19.10;99.90
26107;DHT22;13866;50.748;12.630;2023-05-21T06:01:50;19.40;99.90
26107;DHT22;13866;50.748;12.630;2023-05-21T06:04:15;19.60;99.90
26107;DHT22;13866;50.748;12.630;2023-05-21T06:06:41;19.60;99.90
26107;DHT22;13866;50.748;12.630;2023-05-21T06:09:06;19.60;99.90
26107;DHT22;13866;50.748;12.630;2023-05-21T06:11:32;19.90;99.90
26107;DHT22;13866;50.748;12.630;2023-05-21T06:13:57;20.10;99.90
26107;DHT22;13866;50.748;12.630;2023-05-21T06:19:12;20.20;99.90
26107;DHT22;13866;50.748;12.630;2023-05-21T06:21:38;20.40;99.90
26107;DHT22;13866;50.748;12.630;2023-05-21T06:24:03;19.90;99.90
26107;DHT22;13866;50.748;12.630;2023-05-21T06:26:29;20.00;99.90
26107;DHT22;13866;50.748;12.630;2023-05-21T06:28:55;20.10;99.90
26107;DHT22;13866;50.748;12.630;2023-05-21T06:31:20;20.10;99.90
26107;DHT22;13866;50.748;12.630;2023-05-21T06:33:47;20.20;99.90
26107;DHT22;13866;50.748;12.630;2023-05-21T06:36:13;20.00;99.90
26107;DHT22;13866;50.748;12.630;2023-05-21T06:38:39;20.20;99.90
26107;DHT22;13866;50.748;12.630;2023-05-21T06:41:05;20.10;99.90
26107;DHT22;13866;50.748;12.630;2023-05-21T06:43:43;20.00;99.90
26107;DHT22;13866;50.748;12.630;2023-05-21T06:46:08;20.00;99.90
26107;DHT22;13866;50.748;12.630;2023-05-21T06:48:34;19.90;99.90
26107;DHT22;13866;50.748;12.630;2023-05-21T06:50:59;20.10;99.90
26107;DHT22;13866;50.748;12.630;2023-05-21T06:53:25;20.30;99.90
26107;DHT22;13866;50.748;12.630;2023-05-21T06:55:50;20.50;99.90
26107;DHT22;13866;50.748;12.630;2023-05-21T06:58:18;20.30;99.90
26107;DHT22;13866;50.748;12.630;2023-05-21T07:00:43;20.30;99.90
26107;DHT22;13866;50.748;12.630;2023-05-21T07:03:09;20.20;99.90
26107;DHT22;13866;50.748;12.630;2023-05-21T07:05:35;20.40;99.90
26107;DHT22;13866;50.748;12.630;2023-05-21T07:08:16;20.70;99.90
26107;DHT22;13866;50.748;12.630;2023-05-21T07:10:41;20.90;99.90
26107;DHT22;13866;50.748;12.630;2023-05-21T07:13:07;21.20;99.90
26107;DHT22;13866;50.748;12.630;2023-05-21T07:15:32;21.20;99.90
26107;DHT22;13866;50.748;12.630;2023-05-21T07:18:20;21.30;99.90
26107;DHT22;13866;50.748;12.630;2023-05-21T07:20:45;21.40;99.90
26107;DHT22;13866;50.748;12.630;2023-05-21T07:23:11;21.40;99.90
26107;DHT22;13866;50.748;12.630;2023-05-21T07:25:36;21.50;99.90
26107;DHT22;13866;50.748;12.630;2023-05-21T07:28:20;22.00;99.90
26107;DHT22;13866;50.748;12.630;2023-05-21T07:30:45;22.20;99.90
26107;DHT22;13866;50.748;12.630;2023-05-21T07:33:17;22.50;99.90
26107;DHT22;13866;50.748;12.630;2023-05-21T07:35:44;22.70;99.90
26107;DHT22;13866;50.748;12.630;2023-05-21T07:38:10;22.70;99.90
26107;DHT22;13866;50.748;12.630;2023-05-21T07:40:35;22.80;99.90
26107;DHT22;13866;50.748;12.630;2023-05-21T07:43:01;22.90;99.90
26107;DHT22;13866;50.748;12.630;2023-05-21T07:45:26;23.30;99.90
26107;DHT22;13866;50.748;12.630;2023-05-21T07:47:52;23.80;99.90
26107;DHT22;13866;50.748;12.630;2023-05-21T07:50:17;23.40;99.90
26107;DHT22;13866;50.748;12.630;2023-05-21T07:52:43;23.70;99.90
26107;DHT22;13866;50.748;12.630;2023-05-21T07:55:08;23.50;99.90
26107;DHT22;13866;50.748;12.630;2023-05-21T07:57:34;23.50;99.90
26107;DHT22;13866;50.748;12.630;2023-05-21T08:00:00;23.30;99.90
26107;DHT22;13866;50.748;12.630;2023-05-21T08:02:25;23.70;99.90
26107;DHT22;13866;50.748;12.630;2023-05-21T08:04:51;23.80;99.90
26107;DHT22;13866;50.748;12.630;2023-05-21T08:07:17;23.90;99.90
26107;DHT22;13866;50.748;12.630;2023-05-21T08:09:44;23.70;99.90
26107;DHT22;13866;50.748;12.630;2023-05-21T08:12:09;23.80;99.90
26107;DHT22;13866;50.748;12.630;2023-05-21T08:14:38;23.80;99.90
26107;DHT22;13866;50.748;12.630;2023-05-21T08:17:04;24.00;99.90
26107;DHT22;13866;50.748;12.630;2023-05-21T08:19:29;24.00;99.90
26107;DHT22;13866;50.748;12.630;2023-05-21T08:21:55;24.30;99.90
26107;DHT22;13866;50.748;12.630;2023-05-21T08:24:20;24.50;99.90
26107;DHT22;13866;50.748;12.630;2023-05-21T08:26:46;24.50;99.90
26107;DHT22;13866;50.748;12.630;2023-05-21T08:29:13;24.70;99.90
26107;DHT22;13866;50.748;12.630;2023-05-21T08:31:39;24.40;99.90
26107;DHT22;13866;50.748;12.630;2023-05-21T08:34:04;24.20;99.90
26107;DHT22;13866;50.748;12.630;2023-05-21T08:36:36;24.40;99.90
26107;DHT22;13866;50.748;12.630;2023-05-21T08:39:02;24.20;99.90
26107;DHT22;13866;50.748;12.630;2023-05-21T08:41:37;24.70;99.90
26107;DHT22;13866;50.748;12.630;2023-05-21T08:44:07;24.40;99.90
26107;DHT22;13866;50.748;12.630;2023-05-21T08:46:35;24.40;99.90
26107;DHT22;13866;50.748;12.630;2023-05-21T08:49:11;24.70;99.90
26107;DHT22;13866;50.748;12.630;2023-05-21T08:51:40;24.80;99.90
26107;DHT22;13866;50.748;12.630;2023-05-21T08:54:12;24.70;99.90
26107;DHT22;13866;50.748;12.630;2023-05-21T08:56:49;24.60;99.90
26107;DHT22;13866;50.748;12.630;2023-05-21T08:59:16;24.30;99.90
26107;DHT22;13866;50.748;12.630;2023-05-21T09:02:01;24.80;99.90
26107;DHT22;13866;50.748;12.630;2023-05-21T09:04:28;24.70;99.90
26107;DHT22;13866;50.748;12.630;2023-05-21T09:06:53;24.50;99.90
26107;DHT22;13866;50.748;12.630;2023-05-21T09:09:32;24.20;99.90
26107;DHT22;13866;50.748;12.630;2023-05-21T09:11:58;24.40;99.90
26107;DHT22;13866;50.748;12.630;2023-05-21T09:14:24;24.70;99.90
26107;DHT22;13866;50.748;12.630;2023-05-21T09:17:12;24.90;99.90
26107;DHT22;13866;50.748;12.630;2023-05-21T09:20:06;24.80;99.90
26107;DHT22;13866;50.748;12.630;2023-05-21T09:23:01;24.50;99.90
26107;DHT22;13866;50.748;12.630;2023-05-21T09:25:27;25.20;99.90
26107;DHT22;13866;50.748;12.630;2023-05-21T09:28:03;25.50;99.90
26107;DHT22;13866;50.748;12.630;2023-05-21T09:30:51;25.80;99.90
26107;DHT22;13866;50.748;12.630;2023-05-21T09:33:24;25.60;99.90
26107;DHT22;13866;50.748;12.630;2023-05-21T09:35:50;25.70;99.90
26107;DHT22;13866;50.748;12.630;2023-05-21T09:38:16;26.00;99.90
26107;DHT22;13866;50.748;12.630;2023-05-21T09:40:44;25.90;99.90
26107;DHT22;13866;50.748;12.630;2023-05-21T09:43:14;25.90;99.90
26107;DHT22;13866;50.748;12.630;2023-05-21T09:45:52;25.90;99.90
26107;DHT22;13866;50.748;12.630;2023-05-21T09:48:42;25.40;99.90
26107;DHT22;13866;50.748;12.630;2023-05-21T09:54:17;26.00;99.90
26107;DHT22;13866;50.748;12.630;2023-05-21T09:56:52;25.70;99.90
26107;DHT22;13866;50.748;12.630;2023-05-21T09:59:18;25.70;99.90
26107;DHT22;13866;50.748;12.630;2023-05-21T10:01:56;26.40;99.90
26107;DHT22;13866;50.748;12.630;2023-05-21T10:04:22;26.30;99.90
26107;DHT22;13866;50.748;12.630;2023-05-21T10:09:14;26.20;99.90
26107;DHT22;13866;50.748;12.630;2023-05-21T10:11:48;25.50;99.90
26107;DHT22;13866;50.748;12.630;2023-05-21T10:14:19;25.30;99.60
26107;DHT22;13866;50.748;12.630;2023-05-21T10:16:46;26.00;99.30
26107;DHT22;13866;50.748;12.630;2023-05-21T10:19:12;26.10;99.90
26107;DHT22;13866;50.748;12.630;2023-05-21T10:21:38;25.90;98.10
26107;DHT22;13866;50.748;12.630;2023-05-21T10:28:08;25.80;95.40
26107;DHT22;13866;50.748;12.630;2023-05-21T10:30:33;26.10;95.90
26107;DHT22;13866;50.748;12.630;2023-05-21T10:33:00;26.10;96.30
26107;DHT22;13866;50.748;12.630;2023-05-21T10:35:27;25.80;95.50
26107;DHT22;13866;50.748;12.630;2023-05-21T10:38:01;26.30;96.10
26107;DHT22;13866;50.748;12.630;2023-05-21T10:40:28;26.50;97.40
26107;DHT22;13866;50.748;12.630;2023-05-21T10:43:19;26.80;97.20
26107;DHT22;13866;50.748;12.630;2023-05-21T10:46:24;27.00;96.40
26107;DHT22;13866;50.748;12.630;2023-05-21T10:48:57;25.80;97.10
26107;DHT22;13866;50.748;12.630;2023-05-21T11:05:02;25.80;94.40
26107;DHT22;13866;50.748;12.630;2023-05-21T11:08:03;26.10;94.60
26107;DHT22;13866;50.748;12.630;2023-05-21T11:10:51;26.20;95.30
26107;DHT22;13866;50.748;12.630;2023-05-21T11:13:17;26.60;94.70
26107;DHT22;13866;50.748;12.630;2023-05-21T11:21:21;26.50;93.30
26107;DHT22;13866;50.748;12.630;2023-05-21T11:24:05;26.00;93.90
26107;DHT22;13866;50.748;12.630;2023-05-21T11:32:05;26.00;92.00
26107;DHT22;13866;50.748;12.630;2023-05-21T11:34:51;26.30;90.00
26107;DHT22;13866;50.748;12.630;2023-05-21T11:39:51;25.90;89.50
26107;DHT22;13866;50.748;12.630;2023-05-21T11:42:31;26.00;87.20
26107;DHT22;13866;50.748;12.630;2023-05-21T11:45:19;26.10;86.80
26107;DHT22;13866;50.748;12.630;2023-05-21T11:48:04;25.70;88.80
26107;DHT22;13866;50.748;12.630;2023-05-21T11:50:30;26.00;90.10
26107;DHT22;13866;50.748;12.630;2023-05-21T11:52:58;25.90;87.30
26107;DHT22;13866;50.748;12.630;2023-05-21T11:55:30;25.90;90.20
26107;DHT22;13866;50.748;12.630;2023-05-21T11:57:57;26.30;90.00
26107;DHT22;13866;50.748;12.630;2023-05-21T12:00:41;26.40;90.20
26107;DHT22;13866;50.748;12.630;2023-05-21T12:03:06;26.60;90.70
26107;DHT22;13866;50.748;12.630;2023-05-21T12:05:46;26.60;90.40
26107;DHT22;13866;50.748;12.630;2023-05-21T12:08:24;26.20;85.10
26107;DHT22;13866;50.748;12.630;2023-05-21T12:10:57;26.30;88.80
26107;DHT22;13866;50.748;12.630;2023-05-21T12:13:24;26.70;89.10
26107;DHT22;13866;50.748;12.630;2023-05-21T12:16:05;26.80;88.10
26107;DHT22;13866;50.748;12.630;2023-05-21T12:18:31;27.10;87.30
26107;DHT22;13866;50.748;12.630;2023-05-21T12:21:05;27.10;82.00
26107;DHT22;13866;50.748;12.630;2023-05-21T12:23:31;26.70;81.80
26107;DHT22;13866;50.748;12.630;2023-05-21T12:26:03;26.40;80.30
26107;DHT22;13866;50.748;12.630;2023-05-21T12:28:28;26.30;82.00
26107;DHT22;13866;50.748;12.630;2023-05-21T12:30:54;26.50;77.20
26107;DHT22;13866;50.748;12.630;2023-05-21T12:33:35;26.70;79.40
26107;DHT22;13866;50.748;12.630;2023-05-21T12:36:00;27.10;75.80
26107;DHT22;13866;50.748;12.630;2023-05-21T12:38:31;26.90;74.60
26107;DHT22;13866;50.748;12.630;2023-05-21T12:41:04;26.60;77.70
26107;DHT22;13866;50.748;12.630;2023-05-21T12:43:31;26.40;77.30
26107;DHT22;13866;50.748;12.630;2023-05-21T12:45:56;26.50;79.30
26107;DHT22;13866;50.748;12.630;2023-05-21T12:48:34;26.90;80.20
26107;DHT22;13866;50.748;12.630;2023-05-21T12:51:00;27.10;81.60
26107;DHT22;13866;50.748;12.630;2023-05-21T12:53:35;26.70;77.00
26107;DHT22;13866;50.748;12.630;2023-05-21T12:56:29;26.50;78.40
26107;DHT22;13866;50.748;12.630;2023-05-21T12:59:12;26.60;79.60
26107;DHT22;13866;50.748;12.630;2023-05-21T13:01:38;26.60;82.70
26107;DHT22;13866;50.748;12.630;2023-05-21T13:04:04;26.60;79.50
26107;DHT22;13866;50.748;12.630;2023-05-21T13:06:29;26.20;77.30
26107;DHT22;13866;50.748;12.630;2023-05-21T13:08:55;26.70;77.70
26107;DHT22;13866;50.748;12.630;2023-05-21T13:11:21;26.70;75.10
26107;DHT22;13866;50.748;12.630;2023-05-21T13:13:46;26.40;70.50
26107;DHT22;13866;50.748;12.630;2023-05-21T13:16:12;26.90;74.80
26107;DHT22;13866;50.748;12.630;2023-05-21T13:18:37;27.20;76.50
26107;DHT22;13866;50.748;12.630;2023-05-21T13:21:12;26.40;69.30
26107;DHT22;13866;50.748;12.630;2023-05-21T13:23:37;26.20;67.80
26107;DHT22;13866;50.748;12.630;2023-05-21T13:26:03;26.20;68.10
26107;DHT22;13866;50.748;12.630;2023-05-21T13:28:28;26.40;66.40
26107;DHT22;13866;50.748;12.630;2023-05-21T13:30:53;26.60;66.30
26107;DHT22;13866;50.748;12.630;2023-05-21T13:33:20;26.20;67.70
26107;DHT22;13866;50.748;12.630;2023-05-21T13:35:45;26.10;68.20
26107;DHT22;13866;50.748;12.630;2023-05-21T13:38:15;26.50;68.70
26107;DHT22;13866;50.748;12.630;2023-05-21T13:40:41;26.50;64.80
26107;DHT22;13866;50.748;12.630;2023-05-21T13:43:06;26.90;67.30
26107;DHT22;13866;50.748;12.630;2023-05-21T13:45:32;26.90;68.80
26107;DHT22;13866;50.748;12.630;2023-05-21T13:48:06;26.90;68.20
26107;DHT22;13866;50.748;12.630;2023-05-21T13:50:46;26.60;66.00
26107;DHT22;13866;50.748;12.630;2023-05-21T13:53:14;26.70;70.70
26107;DHT22;13866;50.748;12.630;2023-05-21T13:55:49;26.90;67.10
26107;DHT22;13866;50.748;12.630;2023-05-21T13:58:15;26.60;64.80
26107;DHT22;13866;50.748;12.630;2023-05-21T14:00:40;26.60;61.60
26107;DHT22;13866;50.748;12.630;2023-05-21T14:03:07;26.70;67.30
26107;DHT22;13866;50.748;12.630;2023-05-21T14:05:34;26.90;63.20
26107;DHT22;13866;50.748;12.630;2023-05-21T14:08:00;26.60;64.70
26107;DHT22;13866;50.748;12.630;2023-05-21T14:10:25;26.40;66.30
26107;DHT22;13866;50.748;12.630;2023-05-21T14:12:51;26.70;69.60
26107;DHT22;13866;50.748;12.630;2023-05-21T14:15:17;26.70;72.60
26107;DHT22;13866;50.748;12.630;2023-05-21T14:17:42;26.80;73.20
26107;DHT22;13866;50.748;12.630;2023-05-21T14:20:08;26.70;74.10
26107;DHT22;13866;50.748;12.630;2023-05-21T14:22:34;26.40;72.90
26107;DHT22;13866;50.748;12.630;2023-05-21T14:25:00;26.00;72.20
26107;DHT22;13866;50.748;12.630;2023-05-21T14:27:25;26.10;76.60
26107;DHT22;13866;50.748;12.630;2023-05-21T14:29:50;26.40;75.00
26107;DHT22;13866;50.748;12.630;2023-05-21T14:32:16;26.60;69.80
26107;DHT22;13866;50.748;12.630;2023-05-21T14:34:43;26.60;70.10
26107;DHT22;13866;50.748;12.630;2023-05-21T14:37:08;26.60;69.70
26107;DHT22;13866;50.748;12.630;2023-05-21T14:39:34;26.60;70.60
26107;DHT22;13866;50.748;12.630;2023-05-21T14:42:02;26.80;73.60
26107;DHT22;13866;50.748;12.630;2023-05-21T14:44:27;26.50;72.10
26107;DHT22;13866;50.748;12.630;2023-05-21T14:49:50;26.50;70.30
26107;DHT22;13866;50.748;12.630;2023-05-21T14:52:16;26.30;71.60
26107;DHT22;13866;50.748;12.630;2023-05-21T14:54:41;26.20;73.80
26107;DHT22;13866;50.748;12.630;2023-05-21T14:57:07;26.30;74.50
26107;DHT22;13866;50.748;12.630;2023-05-21T14:59:32;26.00;72.60
26107;DHT22;13866;50.748;12.630;2023-05-21T15:01:57;26.00;77.40
26107;DHT22;13866;50.748;12.630;2023-05-21T15:04:23;26.40;75.40
26107;DHT22;13866;50.748;12.630;2023-05-21T15:06:48;26.40;76.80
26107;DHT22;13866;50.748;12.630;2023-05-21T15:09:14;26.30;74.20
26107;DHT22;13866;50.748;12.630;2023-05-21T15:11:46;26.30;72.20
26107;DHT22;13866;50.748;12.630;2023-05-21T15:14:17;26.40;73.60
26107;DHT22;13866;50.748;12.630;2023-05-21T15:16:42;26.60;73.70
26107;DHT22;13866;50.748;12.630;2023-05-21T15:19:07;26.00;71.70
26107;DHT22;13866;50.748;12.630;2023-05-21T15:21:39;26.10;73.90
26107;DHT22;13866;50.748;12.630;2023-05-21T15:24:17;26.20;74.80
26107;DHT22;13866;50.748;12.630;2023-05-21T15:26:42;26.20;71.20
26107;DHT22;13866;50.748;12.630;2023-05-21T15:29:08;26.10;71.80
26107;DHT22;13866;50.748;12.630;2023-05-21T15:31:33;26.10;72.70
26107;DHT22;13866;50.748;12.630;2023-05-21T15:33:59;26.00;76.50
26107;DHT22;13866;50.748;12.630;2023-05-21T15:36:24;25.90;80.40
26107;DHT22;13866;50.748;12.630;2023-05-21T15:38:51;25.70;75.40
26107;DHT22;13866;50.748;12.630;2023-05-21T15:41:17;25.60;78.50
26107;DHT22;13866;50.748;12.630;2023-05-21T15:43:45;25.50;79.90
26107;DHT22;13866;50.748;12.630;2023-05-21T15:46:13;25.70;79.60
26107;DHT22;13866;50.748;12.630;2023-05-21T15:48:38;25.40;79.20
26107;DHT22;13866;50.748;12.630;2023-05-21T15:51:09;25.40;81.00
26107;DHT22;13866;50.748;12.630;2023-05-21T15:53:34;25.40;83.00
26107;DHT22;13866;50.748;12.630;2023-05-21T15:56:05;25.30;83.30
26107;DHT22;13866;50.748;12.630;2023-05-21T15:58:30;25.00;83.50
26107;DHT22;13866;50.748;12.630;2023-05-21T16:00:56;24.90;85.40
26107;DHT22;13866;50.748;12.630;2023-05-21T16:03:21;25.00;85.70
26107;DHT22;13866;50.748;12.630;2023-05-21T16:05:47;25.10;86.60
26107;DHT22;13866;50.748;12.630;2023-05-21T16:08:12;25.10;87.80